High Point, NC

5:27 PM EDT on October 01, 2016 (GMT -0400)
Oak Hollow Marina | | Change Station

Elev 850 ft 36.01 °N, 80.00 °W | Updated 11 minutes ago

Partly Cloudy
Partly Cloudy
77.5 °F
Feels Like 79 °F
N
0.0
Wind Variable Wind from SW
Gusts 3.0 mph

Today
High -- | Low -- °F
--% Chance of Precip.
Yesterday
High -- | Low -- °F
Precip. -- in
Pressure 30.01 in
Visibility 10.0 miles
Clouds Few 6000 ft
Few 25000 ft
Heat Index 79 °F
Dew Point 55 °F
Humidity 46%
Rainfall 0.02 in
Snow Depth Not available.
7:15 AM 7:02 PM
New Moon, 1% visible
METAR KGSO 012054Z 21008KT 150V220 10SM FEW060 FEW250 26/12 A3003 RMK AO2 SLP161 T02560122 56006
Pressure 30.01 in
Visibility 10.0 miles
Clouds Few 6000 ft
Few 25000 ft
Heat Index 79 °F
Dew Point 55 °F
Humidity 46%
Rainfall 0.02 in
Snow Depth Not available.
7:15 AM 7:02 PM
New Moon, 1% visible
METAR KGSO 012054Z 21008KT 150V220 10SM FEW060 FEW250 26/12 A3003 RMK AO2 SLP161 T02560122 56006

10-Day Weather Forecast

Almanac

Astronomy

Oct. 01, 2016 Rise Set
Actual Time
Civil Twilight
Nautical Twilight
Astronomical Twilight
Moon
Length of Visible Light
Length of Day
Tomorrow will be .
, % of the Moon is Illuminated

Today's Extremes

State Highs State Lows

Community

WunderPhotos

Upload Photos

1,943,026 photos uploaded!

WunderBlog® & News

Nearby

Air Quality

  Air Quality AQ Index Pollutant
Not available.

Snow Depth

Station Depth Elevation

Earthquake Activity

City Distance Mag. Time & Date
Minimum magnitude displayed is 2.5.

Coastal Water Temperatures

Place Temperature

Stations

Nearby Weather Stations

Station Location Temp. Windchill Dew Point Humidity Wind Precip. Elev Updated Type
                   

Watches & Warnings

There are currently no watches in effect.